Swainton, New Jersey
Current Conditions -  °F | °C
As of 1:15 PM on Sunday 25 Jan 2015 (Local Time) from KWWD Reporting Station
Clear Clear  
Wind Chill: 42°   Ceiling: Unl
Heat Index: 46°   Visibility: 10mi
Dew Point: 30°   Wind: 8mph
Humidity: 53%   Direction: 250°WSW
Pressure: 29.81"   Gusts: NA
Location:  39.1108°N, 74.8241°W
Report Text: KWWD 251815Z AUTO 25007KT 10SM CLR 08/M01 A2981 RMK AO1
Loading
Personal Weather Stations






























Interactive Weather Map New forecast layout! Learn more

10-Day Weather Forecast

Advertisements
Track Severe Weather on mobile